Weather at Morris Manor Airport

Public forecast

Using degrees Fahrenheit for public forecast. Weather courtesy of forecast.io.

Closest aviation weather report (METAR) to Morris Manor Airport

Closest report is Sulphur Springs Municipal Airport, 9.3 nm (17.2 km) E.

2024/05/28 20:15 (retrieved 33 minutes ago)

KSLR 282015Z AUTO 09004KT 10SM CLR 24/18 A3009 RMK AO2 T02430176

Closest aviation forecast (TAF) to Morris Manor Airport

Closest forecast is Tyler Pounds Regional Airport, 52.6 nm (97.4 km) SSE.

2024/05/28 18:22 (retrieved 2 hours ago)

TAF KTYR 281720Z 2818/2918 07010KT 6SM -SHRA VCTS OVC050CB FM282000 07010KT P6SM BKN100 FM290000 06005KT P6SM SCT100 FM290300 VRB03KT P6SM FEW070 FM290900 VRB03KT P6SM BKN080 FM291500 08004KT P6SM OVC100